sensor_id;sensor_type;location;lat;lon;timestamp;P1;durP1;ratioP1;P2;durP2;ratioP2
75820;SDS011;64454;51.984;9.838;2023-04-09T00:00:42;26.55;;;17.85;;
75820;SDS011;64454;51.984;9.838;2023-04-09T00:03:10;28.98;;;18.35;;
75820;SDS011;64454;51.984;9.838;2023-04-09T00:05:38;26.30;;;17.42;;
75820;SDS011;64454;51.984;9.838;2023-04-09T00:08:05;32.38;;;19.83;;
75820;SDS011;64454;51.984;9.838;2023-04-09T00:10:32;27.23;;;19.00;;
75820;SDS011;64454;51.984;9.838;2023-04-09T00:12:59;28.98;;;19.50;;
75820;SDS011;64454;51.984;9.838;2023-04-09T00:15:26;30.65;;;20.52;;
75820;SDS011;64454;51.984;9.838;2023-04-09T00:17:53;28.15;;;18.92;;
75820;SDS011;64454;51.984;9.838;2023-04-09T00:20:22;31.38;;;19.55;;
75820;SDS011;64454;51.984;9.838;2023-04-09T00:22:49;29.58;;;19.88;;
75820;SDS011;64454;51.984;9.838;2023-04-09T00:25:16;26.38;;;19.13;;
75820;SDS011;64454;51.984;9.838;2023-04-09T00:27:43;27.30;;;18.57;;
75820;SDS011;64454;51.984;9.838;2023-04-09T00:30:11;27.23;;;18.80;;
75820;SDS011;64454;51.984;9.838;2023-04-09T00:32:37;28.67;;;19.52;;
75820;SDS011;64454;51.984;9.838;2023-04-09T00:35:05;29.40;;;19.75;;
75820;SDS011;64454;51.984;9.838;2023-04-09T00:37:34;28.83;;;20.40;;
75820;SDS011;64454;51.984;9.838;2023-04-09T00:40:00;30.50;;;20.40;;
75820;SDS011;64454;51.984;9.838;2023-04-09T00:42:30;29.65;;;20.00;;
75820;SDS011;64454;51.984;9.838;2023-04-09T00:44:57;30.80;;;20.73;;
75820;SDS011;64454;51.984;9.838;2023-04-09T00:47:24;32.70;;;22.00;;
75820;SDS011;64454;51.984;9.838;2023-04-09T00:49:53;30.77;;;20.92;;
75820;SDS011;64454;51.984;9.838;2023-04-09T00:52:20;31.45;;;20.60;;
75820;SDS011;64454;51.984;9.838;2023-04-09T00:54:49;29.88;;;20.73;;
75820;SDS011;64454;51.984;9.838;2023-04-09T00:57:16;32.50;;;21.63;;
75820;SDS011;64454;51.984;9.838;2023-04-09T00:59:44;32.80;;;21.75;;
75820;SDS011;64454;51.984;9.838;2023-04-09T01:02:11;31.80;;;21.37;;
75820;SDS011;64454;51.984;9.838;2023-04-09T01:04:39;30.07;;;20.50;;
75820;SDS011;64454;51.984;9.838;2023-04-09T01:07:09;32.03;;;20.50;;
75820;SDS011;64454;51.984;9.838;2023-04-09T01:09:47;33.22;;;22.98;;
75820;SDS011;64454;51.984;9.838;2023-04-09T01:12:28;32.00;;;21.52;;
75820;SDS011;64454;51.984;9.838;2023-04-09T01:15:04;30.45;;;22.50;;
75820;SDS011;64454;51.984;9.838;2023-04-09T01:17:37;32.58;;;23.15;;
75820;SDS011;64454;51.984;9.838;2023-04-09T01:20:12;30.70;;;21.88;;
75820;SDS011;64454;51.984;9.838;2023-04-09T01:22:58;36.15;;;23.90;;
75820;SDS011;64454;51.984;9.838;2023-04-09T01:25:43;34.67;;;21.95;;
75820;SDS011;64454;51.984;9.838;2023-04-09T01:28:28;35.70;;;22.42;;
75820;SDS011;64454;51.984;9.838;2023-04-09T01:30:59;32.95;;;21.63;;
75820;SDS011;64454;51.984;9.838;2023-04-09T01:33:32;32.33;;;22.40;;
75820;SDS011;64454;51.984;9.838;2023-04-09T01:36:02;33.33;;;22.63;;
75820;SDS011;64454;51.984;9.838;2023-04-09T01:38:32;36.22;;;23.70;;
75820;SDS011;64454;51.984;9.838;2023-04-09T01:41:01;31.60;;;21.70;;
75820;SDS011;64454;51.984;9.838;2023-04-09T01:43:30;34.17;;;24.50;;
75820;SDS011;64454;51.984;9.838;2023-04-09T01:45:59;33.10;;;21.40;;
75820;SDS011;64454;51.984;9.838;2023-04-09T01:48:28;32.67;;;23.27;;
75820;SDS011;64454;51.984;9.838;2023-04-09T01:50:56;33.70;;;23.23;;
75820;SDS011;64454;51.984;9.838;2023-04-09T01:53:24;36.33;;;23.75;;
75820;SDS011;64454;51.984;9.838;2023-04-09T01:55:52;32.25;;;22.02;;
75820;SDS011;64454;51.984;9.838;2023-04-09T01:58:20;35.45;;;24.60;;
75820;SDS011;64454;51.984;9.838;2023-04-09T02:00:48;32.95;;;23.02;;
75820;SDS011;64454;51.984;9.838;2023-04-09T02:03:20;35.75;;;23.38;;
75820;SDS011;64454;51.984;9.838;2023-04-09T02:05:52;35.70;;;23.88;;
75820;SDS011;64454;51.984;9.838;2023-04-09T02:08:23;33.58;;;22.58;;
75820;SDS011;64454;51.984;9.838;2023-04-09T02:10:54;36.55;;;23.52;;
75820;SDS011;64454;51.984;9.838;2023-04-09T02:13:25;35.95;;;23.00;;
75820;SDS011;64454;51.984;9.838;2023-04-09T02:15:57;35.33;;;24.00;;
75820;SDS011;64454;51.984;9.838;2023-04-09T02:18:26;32.95;;;22.52;;
75820;SDS011;64454;51.984;9.838;2023-04-09T02:20:55;33.05;;;22.35;;
75820;SDS011;64454;51.984;9.838;2023-04-09T02:23:22;31.67;;;22.33;;
75820;SDS011;64454;51.984;9.838;2023-04-09T02:25:51;36.42;;;22.90;;
75820;SDS011;64454;51.984;9.838;2023-04-09T02:28:18;33.22;;;23.17;;
75820;SDS011;64454;51.984;9.838;2023-04-09T02:30:45;31.80;;;21.95;;
75820;SDS011;64454;51.984;9.838;2023-04-09T02:33:13;34.22;;;22.70;;
75820;SDS011;64454;51.984;9.838;2023-04-09T02:35:40;34.67;;;22.30;;
75820;SDS011;64454;51.984;9.838;2023-04-09T02:38:07;33.20;;;23.03;;
75820;SDS011;64454;51.984;9.838;2023-04-09T02:40:37;30.33;;;21.63;;
75820;SDS011;64454;51.984;9.838;2023-04-09T02:43:05;35.08;;;22.98;;
75820;SDS011;64454;51.984;9.838;2023-04-09T02:45:32;36.03;;;23.60;;
75820;SDS011;64454;51.984;9.838;2023-04-09T02:47:59;34.78;;;22.55;;
75820;SDS011;64454;51.984;9.838;2023-04-09T02:50:27;34.45;;;23.48;;
75820;SDS011;64454;51.984;9.838;2023-04-09T02:52:54;40.08;;;25.50;;
75820;SDS011;64454;51.984;9.838;2023-04-09T02:55:21;39.75;;;25.30;;
75820;SDS011;64454;51.984;9.838;2023-04-09T02:57:48;38.85;;;24.67;;
75820;SDS011;64454;51.984;9.838;2023-04-09T03:00:15;38.40;;;26.17;;
75820;SDS011;64454;51.984;9.838;2023-04-09T03:02:42;37.35;;;24.85;;
75820;SDS011;64454;51.984;9.838;2023-04-09T03:05:09;39.22;;;25.33;;
75820;SDS011;64454;51.984;9.838;2023-04-09T03:07:37;40.80;;;26.40;;
75820;SDS011;64454;51.984;9.838;2023-04-09T03:10:04;37.92;;;26.50;;
75820;SDS011;64454;51.984;9.838;2023-04-09T03:12:31;38.60;;;26.27;;
75820;SDS011;64454;51.984;9.838;2023-04-09T03:14:58;40.42;;;25.95;;
75820;SDS011;64454;51.984;9.838;2023-04-09T03:17:25;32.03;;;22.95;;
75820;SDS011;64454;51.984;9.838;2023-04-09T03:19:53;34.85;;;23.92;;
75820;SDS011;64454;51.984;9.838;2023-04-09T03:22:20;41.38;;;25.98;;
75820;SDS011;64454;51.984;9.838;2023-04-09T03:24:48;40.45;;;25.20;;
75820;SDS011;64454;51.984;9.838;2023-04-09T03:27:15;32.50;;;22.67;;
75820;SDS011;64454;51.984;9.838;2023-04-09T03:29:42;35.03;;;22.17;;
75820;SDS011;64454;51.984;9.838;2023-04-09T03:32:09;33.72;;;22.25;;
75820;SDS011;64454;51.984;9.838;2023-04-09T03:34:35;35.97;;;22.98;;
75820;SDS011;64454;51.984;9.838;2023-04-09T03:37:02;33.75;;;23.30;;
75820;SDS011;64454;51.984;9.838;2023-04-09T03:39:29;37.10;;;23.92;;
75820;SDS011;64454;51.984;9.838;2023-04-09T03:41:57;33.33;;;23.23;;
75820;SDS011;64454;51.984;9.838;2023-04-09T03:44:25;39.10;;;24.00;;
75820;SDS011;64454;51.984;9.838;2023-04-09T03:46:54;37.88;;;25.05;;
75820;SDS011;64454;51.984;9.838;2023-04-09T03:49:21;43.67;;;26.13;;
75820;SDS011;64454;51.984;9.838;2023-04-09T03:51:47;38.58;;;23.95;;
75820;SDS011;64454;51.984;9.838;2023-04-09T03:54:15;35.17;;;22.95;;
75820;SDS011;64454;51.984;9.838;2023-04-09T03:56:44;38.63;;;23.50;;
75820;SDS011;64454;51.984;9.838;2023-04-09T03:59:12;37.55;;;23.77;;
75820;SDS011;64454;51.984;9.838;2023-04-09T04:01:40;36.15;;;23.35;;
75820;SDS011;64454;51.984;9.838;2023-04-09T04:04:07;34.05;;;23.77;;
75820;SDS011;64454;51.984;9.838;2023-04-09T04:06:34;38.92;;;25.33;;
75820;SDS011;64454;51.984;9.838;2023-04-09T04:09:01;37.85;;;23.77;;
75820;SDS011;64454;51.984;9.838;2023-04-09T04:11:28;38.47;;;22.77;;
75820;SDS011;64454;51.984;9.838;2023-04-09T04:13:55;33.90;;;22.08;;
75820;SDS011;64454;51.984;9.838;2023-04-09T04:16:23;37.10;;;22.70;;
75820;SDS011;64454;51.984;9.838;2023-04-09T04:18:50;38.90;;;22.65;;
75820;SDS011;64454;51.984;9.838;2023-04-09T04:21:17;33.58;;;20.92;;
75820;SDS011;64454;51.984;9.838;2023-04-09T04:23:44;32.28;;;19.55;;
75820;SDS011;64454;51.984;9.838;2023-04-09T04:26:11;49.97;;;21.17;;
75820;SDS011;64454;51.984;9.838;2023-04-09T04:28:38;45.17;;;20.23;;
75820;SDS011;64454;51.984;9.838;2023-04-09T04:31:06;35.40;;;20.60;;
75820;SDS011;64454;51.984;9.838;2023-04-09T04:33:36;34.97;;;21.33;;
75820;SDS011;64454;51.984;9.838;2023-04-09T04:36:05;33.22;;;20.15;;
75820;SDS011;64454;51.984;9.838;2023-04-09T04:38:33;42.80;;;20.80;;
75820;SDS011;64454;51.984;9.838;2023-04-09T04:41:01;32.05;;;19.83;;
75820;SDS011;64454;51.984;9.838;2023-04-09T04:43:28;30.52;;;19.00;;
75820;SDS011;64454;51.984;9.838;2023-04-09T04:45:56;29.63;;;18.52;;
75820;SDS011;64454;51.984;9.838;2023-04-09T04:48:23;29.58;;;18.55;;
75820;SDS011;64454;51.984;9.838;2023-04-09T04:50:56;28.50;;;18.13;;
75820;SDS011;64454;51.984;9.838;2023-04-09T04:53:25;30.83;;;18.95;;
75820;SDS011;64454;51.984;9.838;2023-04-09T04:55:52;26.70;;;16.80;;
75820;SDS011;64454;51.984;9.838;2023-04-09T04:58:19;25.08;;;18.02;;
75820;SDS011;64454;51.984;9.838;2023-04-09T05:00:46;30.25;;;18.90;;
75820;SDS011;64454;51.984;9.838;2023-04-09T05:03:13;26.38;;;17.42;;
75820;SDS011;64454;51.984;9.838;2023-04-09T05:05:41;27.45;;;17.40;;
75820;SDS011;64454;51.984;9.838;2023-04-09T05:08:10;27.90;;;17.55;;
75820;SDS011;64454;51.984;9.838;2023-04-09T05:10:39;25.20;;;17.15;;
75820;SDS011;64454;51.984;9.838;2023-04-09T05:13:06;29.73;;;19.17;;
75820;SDS011;64454;51.984;9.838;2023-04-09T05:15:36;28.58;;;19.20;;
75820;SDS011;64454;51.984;9.838;2023-04-09T05:18:04;32.63;;;19.70;;
75820;SDS011;64454;51.984;9.838;2023-04-09T05:20:31;31.90;;;20.35;;
75820;SDS011;64454;51.984;9.838;2023-04-09T05:22:59;40.55;;;21.80;;
75820;SDS011;64454;51.984;9.838;2023-04-09T05:25:27;34.08;;;20.85;;
75820;SDS011;64454;51.984;9.838;2023-04-09T05:27:54;40.60;;;20.15;;
75820;SDS011;64454;51.984;9.838;2023-04-09T05:30:21;36.60;;;20.42;;
75820;SDS011;64454;51.984;9.838;2023-04-09T05:32:48;37.35;;;21.13;;
75820;SDS011;64454;51.984;9.838;2023-04-09T05:35:14;33.65;;;20.90;;
75820;SDS011;64454;51.984;9.838;2023-04-09T05:37:41;36.50;;;21.58;;
75820;SDS011;64454;51.984;9.838;2023-04-09T05:40:09;33.75;;;21.17;;
75820;SDS011;64454;51.984;9.838;2023-04-09T05:42:38;33.13;;;21.42;;
75820;SDS011;64454;51.984;9.838;2023-04-09T05:45:06;35.35;;;21.67;;
75820;SDS011;64454;51.984;9.838;2023-04-09T05:47:34;39.17;;;22.90;;
75820;SDS011;64454;51.984;9.838;2023-04-09T05:50:01;37.53;;;21.33;;
75820;SDS011;64454;51.984;9.838;2023-04-09T05:52:28;35.38;;;21.27;;
75820;SDS011;64454;51.984;9.838;2023-04-09T05:54:55;36.20;;;21.08;;
75820;SDS011;64454;51.984;9.838;2023-04-09T05:57:21;41.60;;;23.02;;
75820;SDS011;64454;51.984;9.838;2023-04-09T05:59:50;38.47;;;22.50;;
75820;SDS011;64454;51.984;9.838;2023-04-09T06:02:16;37.75;;;22.77;;
75820;SDS011;64454;51.984;9.838;2023-04-09T06:04:43;39.55;;;23.25;;
75820;SDS011;64454;51.984;9.838;2023-04-09T06:07:10;39.78;;;22.98;;
75820;SDS011;64454;51.984;9.838;2023-04-09T06:09:37;41.38;;;24.98;;
75820;SDS011;64454;51.984;9.838;2023-04-09T06:12:04;44.53;;;25.83;;
75820;SDS011;64454;51.984;9.838;2023-04-09T06:14:31;50.93;;;29.33;;
75820;SDS011;64454;51.984;9.838;2023-04-09T06:16:59;56.57;;;30.53;;
75820;SDS011;64454;51.984;9.838;2023-04-09T06:19:26;50.00;;;29.20;;
75820;SDS011;64454;51.984;9.838;2023-04-09T06:21:53;44.85;;;28.73;;
75820;SDS011;64454;51.984;9.838;2023-04-09T06:24:21;44.45;;;25.48;;
75820;SDS011;64454;51.984;9.838;2023-04-09T06:26:47;47.95;;;27.50;;
75820;SDS011;64454;51.984;9.838;2023-04-09T06:29:15;49.42;;;27.65;;
75820;SDS011;64454;51.984;9.838;2023-04-09T06:31:42;51.47;;;27.80;;
75820;SDS011;64454;51.984;9.838;2023-04-09T06:34:11;49.28;;;27.48;;
75820;SDS011;64454;51.984;9.838;2023-04-09T06:36:39;50.20;;;29.30;;
75820;SDS011;64454;51.984;9.838;2023-04-09T06:39:07;49.58;;;28.42;;
75820;SDS011;64454;51.984;9.838;2023-04-09T06:41:34;57.20;;;28.75;;
75820;SDS011;64454;51.984;9.838;2023-04-09T06:44:01;50.88;;;28.88;;
75820;SDS011;64454;51.984;9.838;2023-04-09T06:46:28;48.78;;;27.17;;
75820;SDS011;64454;51.984;9.838;2023-04-09T06:48:55;47.38;;;27.02;;
75820;SDS011;64454;51.984;9.838;2023-04-09T06:51:23;52.33;;;27.92;;
75820;SDS011;64454;51.984;9.838;2023-04-09T06:53:51;48.10;;;26.92;;
75820;SDS011;64454;51.984;9.838;2023-04-09T06:56:17;46.95;;;27.48;;
75820;SDS011;64454;51.984;9.838;2023-04-09T06:58:44;51.70;;;27.70;;
75820;SDS011;64454;51.984;9.838;2023-04-09T07:01:11;43.88;;;26.70;;
75820;SDS011;64454;51.984;9.838;2023-04-09T07:03:39;46.87;;;26.17;;
75820;SDS011;64454;51.984;9.838;2023-04-09T07:06:05;44.27;;;25.67;;
75820;SDS011;64454;51.984;9.838;2023-04-09T07:08:34;44.27;;;26.40;;
75820;SDS011;64454;51.984;9.838;2023-04-09T07:11:00;42.33;;;25.92;;
75820;SDS011;64454;51.984;9.838;2023-04-09T07:13:28;44.75;;;24.90;;
75820;SDS011;64454;51.984;9.838;2023-04-09T07:15:55;46.00;;;25.03;;
75820;SDS011;64454;51.984;9.838;2023-04-09T07:18:22;41.70;;;25.60;;
75820;SDS011;64454;51.984;9.838;2023-04-09T07:20:48;45.57;;;25.33;;
75820;SDS011;64454;51.984;9.838;2023-04-09T07:23:17;45.28;;;25.75;;
75820;SDS011;64454;51.984;9.838;2023-04-09T07:25:45;38.78;;;24.25;;
75820;SDS011;64454;51.984;9.838;2023-04-09T07:28:12;43.22;;;24.20;;
75820;SDS011;64454;51.984;9.838;2023-04-09T07:30:39;40.75;;;24.17;;
75820;SDS011;64454;51.984;9.838;2023-04-09T07:33:06;43.42;;;25.00;;
75820;SDS011;64454;51.984;9.838;2023-04-09T07:35:33;38.92;;;23.90;;
75820;SDS011;64454;51.984;9.838;2023-04-09T07:38:00;42.25;;;25.20;;
75820;SDS011;64454;51.984;9.838;2023-04-09T07:40:27;40.38;;;23.67;;
75820;SDS011;64454;51.984;9.838;2023-04-09T07:42:55;42.65;;;26.75;;
75820;SDS011;64454;51.984;9.838;2023-04-09T07:45:22;35.57;;;23.07;;
75820;SDS011;64454;51.984;9.838;2023-04-09T07:47:49;39.65;;;24.02;;
75820;SDS011;64454;51.984;9.838;2023-04-09T07:50:16;38.20;;;22.98;;
75820;SDS011;64454;51.984;9.838;2023-04-09T07:52:43;36.47;;;21.90;;
75820;SDS011;64454;51.984;9.838;2023-04-09T07:55:10;37.60;;;21.38;;
75820;SDS011;64454;51.984;9.838;2023-04-09T07:57:37;35.40;;;22.30;;
75820;SDS011;64454;51.984;9.838;2023-04-09T08:00:06;35.60;;;21.83;;
75820;SDS011;64454;51.984;9.838;2023-04-09T08:02:34;36.47;;;21.50;;
75820;SDS011;64454;51.984;9.838;2023-04-09T08:05:01;35.50;;;21.83;;
75820;SDS011;64454;51.984;9.838;2023-04-09T08:07:28;36.17;;;20.92;;
75820;SDS011;64454;51.984;9.838;2023-04-09T08:09:55;35.92;;;21.20;;
75820;SDS011;64454;51.984;9.838;2023-04-09T08:12:22;36.53;;;22.02;;
75820;SDS011;64454;51.984;9.838;2023-04-09T08:14:49;34.47;;;20.80;;
75820;SDS011;64454;51.984;9.838;2023-04-09T08:17:17;36.23;;;22.43;;
75820;SDS011;64454;51.984;9.838;2023-04-09T08:19:44;33.00;;;21.67;;
75820;SDS011;64454;51.984;9.838;2023-04-09T08:22:12;36.38;;;21.25;;
75820;SDS011;64454;51.984;9.838;2023-04-09T08:24:39;35.05;;;22.08;;
75820;SDS011;64454;51.984;9.838;2023-04-09T08:27:07;35.90;;;21.98;;
75820;SDS011;64454;51.984;9.838;2023-04-09T08:29:34;34.13;;;21.23;;
75820;SDS011;64454;51.984;9.838;2023-04-09T08:32:02;33.20;;;20.63;;
75820;SDS011;64454;51.984;9.838;2023-04-09T08:34:31;35.97;;;21.13;;
75820;SDS011;64454;51.984;9.838;2023-04-09T08:36:58;32.00;;;20.88;;
75820;SDS011;64454;51.984;9.838;2023-04-09T08:39:25;32.67;;;21.73;;
75820;SDS011;64454;51.984;9.838;2023-04-09T08:41:51;29.80;;;20.88;;
75820;SDS011;64454;51.984;9.838;2023-04-09T08:44:24;33.88;;;20.45;;
75820;SDS011;64454;51.984;9.838;2023-04-09T08:46:51;33.53;;;20.70;;
75820;SDS011;64454;51.984;9.838;2023-04-09T08:49:19;33.35;;;21.50;;
75820;SDS011;64454;51.984;9.838;2023-04-09T08:51:48;32.58;;;21.10;;
75820;SDS011;64454;51.984;9.838;2023-04-09T08:54:16;33.13;;;20.08;;
75820;SDS011;64454;51.984;9.838;2023-04-09T08:56:45;38.70;;;23.25;;
75820;SDS011;64454;51.984;9.838;2023-04-09T08:59:14;34.65;;;23.08;;
75820;SDS011;64454;51.984;9.838;2023-04-09T09:01:44;35.13;;;22.98;;
75820;SDS011;64454;51.984;9.838;2023-04-09T09:04:17;31.85;;;20.55;;
75820;SDS011;64454;51.984;9.838;2023-04-09T09:06:45;35.53;;;21.95;;
75820;SDS011;64454;51.984;9.838;2023-04-09T09:09:14;35.20;;;21.67;;
75820;SDS011;64454;51.984;9.838;2023-04-09T09:11:44;36.08;;;22.88;;
75820;SDS011;64454;51.984;9.838;2023-04-09T09:14:15;32.70;;;20.10;;
75820;SDS011;64454;51.984;9.838;2023-04-09T09:17:02;36.97;;;21.50;;
75820;SDS011;64454;51.984;9.838;2023-04-09T09:19:32;29.50;;;20.42;;
75820;SDS011;64454;51.984;9.838;2023-04-09T09:22:01;36.03;;;23.92;;
75820;SDS011;64454;51.984;9.838;2023-04-09T09:24:30;37.95;;;22.38;;
75820;SDS011;64454;51.984;9.838;2023-04-09T09:26:58;36.78;;;23.20;;
75820;SDS011;64454;51.984;9.838;2023-04-09T09:29:26;33.90;;;22.02;;
75820;SDS011;64454;51.984;9.838;2023-04-09T09:31:54;33.53;;;22.05;;
75820;SDS011;64454;51.984;9.838;2023-04-09T09:34:22;31.20;;;20.77;;
75820;SDS011;64454;51.984;9.838;2023-04-09T09:36:50;32.95;;;20.80;;
75820;SDS011;64454;51.984;9.838;2023-04-09T09:39:19;32.87;;;21.27;;
75820;SDS011;64454;51.984;9.838;2023-04-09T09:41:46;38.58;;;23.35;;
75820;SDS011;64454;51.984;9.838;2023-04-09T09:44:28;31.90;;;21.75;;
75820;SDS011;64454;51.984;9.838;2023-04-09T09:46:57;36.70;;;22.20;;
75820;SDS011;64454;51.984;9.838;2023-04-09T09:49:28;35.55;;;22.38;;
75820;SDS011;64454;51.984;9.838;2023-04-09T09:51:55;39.03;;;23.35;;
75820;SDS011;64454;51.984;9.838;2023-04-09T09:54:28;34.10;;;22.83;;
75820;SDS011;64454;51.984;9.838;2023-04-09T09:57:06;34.78;;;22.02;;
75820;SDS011;64454;51.984;9.838;2023-04-09T09:59:37;34.38;;;22.63;;
75820;SDS011;64454;51.984;9.838;2023-04-09T10:02:10;36.22;;;22.95;;
75820;SDS011;64454;51.984;9.838;2023-04-09T10:04:44;32.50;;;21.60;;
75820;SDS011;64454;51.984;9.838;2023-04-09T10:07:14;33.83;;;21.05;;
75820;SDS011;64454;51.984;9.838;2023-04-09T10:09:46;32.30;;;21.08;;
75820;SDS011;64454;51.984;9.838;2023-04-09T10:12:16;31.90;;;20.20;;
75820;SDS011;64454;51.984;9.838;2023-04-09T10:14:48;33.15;;;21.73;;
75820;SDS011;64454;51.984;9.838;2023-04-09T10:17:17;29.92;;;20.83;;
75820;SDS011;64454;51.984;9.838;2023-04-09T10:19:46;30.38;;;20.35;;
75820;SDS011;64454;51.984;9.838;2023-04-09T10:22:24;30.40;;;19.90;;
75820;SDS011;64454;51.984;9.838;2023-04-09T10:24:59;30.13;;;18.63;;
75820;SDS011;64454;51.984;9.838;2023-04-09T10:27:26;27.13;;;17.90;;
75820;SDS011;64454;51.984;9.838;2023-04-09T10:29:53;25.55;;;18.15;;
75820;SDS011;64454;51.984;9.838;2023-04-09T10:32:21;23.83;;;17.70;;
75820;SDS011;64454;51.984;9.838;2023-04-09T10:34:50;28.58;;;18.33;;
75820;SDS011;64454;51.984;9.838;2023-04-09T10:37:22;25.25;;;18.00;;
75820;SDS011;64454;51.984;9.838;2023-04-09T10:39:50;25.15;;;16.75;;
75820;SDS011;64454;51.984;9.838;2023-04-09T10:42:21;24.75;;;16.48;;
75820;SDS011;64454;51.984;9.838;2023-04-09T10:45:04;24.88;;;16.48;;
75820;SDS011;64454;51.984;9.838;2023-04-09T10:47:35;23.02;;;16.30;;
75820;SDS011;64454;51.984;9.838;2023-04-09T10:50:13;24.45;;;16.35;;
75820;SDS011;64454;51.984;9.838;2023-04-09T10:52:45;24.73;;;16.40;;
75820;SDS011;64454;51.984;9.838;2023-04-09T10:55:29;21.88;;;15.10;;
75820;SDS011;64454;51.984;9.838;2023-04-09T10:58:00;23.45;;;16.67;;
75820;SDS011;64454;51.984;9.838;2023-04-09T11:00:29;23.88;;;15.68;;
75820;SDS011;64454;51.984;9.838;2023-04-09T11:03:05;24.33;;;16.73;;
75820;SDS011;64454;51.984;9.838;2023-04-09T11:05:45;22.52;;;16.17;;
75820;SDS011;64454;51.984;9.838;2023-04-09T11:08:17;23.80;;;16.17;;
75820;SDS011;64454;51.984;9.838;2023-04-09T11:10:46;22.00;;;15.27;;
75820;SDS011;64454;51.984;9.838;2023-04-09T11:13:15;21.73;;;15.13;;
75820;SDS011;64454;51.984;9.838;2023-04-09T11:15:44;21.85;;;15.35;;
75820;SDS011;64454;51.984;9.838;2023-04-09T11:18:14;21.58;;;15.40;;
75820;SDS011;64454;51.984;9.838;2023-04-09T11:20:45;22.80;;;15.57;;
75820;SDS011;64454;51.984;9.838;2023-04-09T11:23:12;24.65;;;15.90;;
75820;SDS011;64454;51.984;9.838;2023-04-09T11:25:40;21.35;;;15.23;;
75820;SDS011;64454;51.984;9.838;2023-04-09T11:28:07;20.47;;;14.70;;
75820;SDS011;64454;51.984;9.838;2023-04-09T11:30:35;21.25;;;15.55;;
75820;SDS011;64454;51.984;9.838;2023-04-09T11:33:02;24.13;;;15.23;;
75820;SDS011;64454;51.984;9.838;2023-04-09T11:35:29;19.83;;;14.45;;
75820;SDS011;64454;51.984;9.838;2023-04-09T11:38:00;20.42;;;14.32;;
75820;SDS011;64454;51.984;9.838;2023-04-09T11:40:31;20.95;;;14.13;;
75820;SDS011;64454;51.984;9.838;2023-04-09T11:42:58;20.75;;;14.90;;
75820;SDS011;64454;51.984;9.838;2023-04-09T11:45:27;23.50;;;14.70;;
75820;SDS011;64454;51.984;9.838;2023-04-09T11:47:58;20.75;;;14.13;;
75820;SDS011;64454;51.984;9.838;2023-04-09T11:50:25;20.88;;;14.32;;
75820;SDS011;64454;51.984;9.838;2023-04-09T11:52:52;21.63;;;14.80;;
75820;SDS011;64454;51.984;9.838;2023-04-09T11:55:22;18.58;;;13.43;;
75820;SDS011;64454;51.984;9.838;2023-04-09T11:57:51;18.10;;;13.43;;
75820;SDS011;64454;51.984;9.838;2023-04-09T12:00:21;21.33;;;13.80;;
75820;SDS011;64454;51.984;9.838;2023-04-09T12:02:49;20.85;;;14.40;;
75820;SDS011;64454;51.984;9.838;2023-04-09T12:05:27;17.35;;;12.80;;
75820;SDS011;64454;51.984;9.838;2023-04-09T12:07:57;17.55;;;13.52;;
75820;SDS011;64454;51.984;9.838;2023-04-09T12:10:26;17.95;;;12.13;;
75820;SDS011;64454;51.984;9.838;2023-04-09T12:12:59;17.67;;;13.52;;
75820;SDS011;64454;51.984;9.838;2023-04-09T12:15:29;15.93;;;12.80;;
75820;SDS011;64454;51.984;9.838;2023-04-09T12:18:00;17.15;;;12.63;;
75820;SDS011;64454;51.984;9.838;2023-04-09T12:20:28;15.57;;;12.40;;
75820;SDS011;64454;51.984;9.838;2023-04-09T12:22:57;16.02;;;12.02;;
75820;SDS011;64454;51.984;9.838;2023-04-09T12:25:27;16.45;;;11.68;;
75820;SDS011;64454;51.984;9.838;2023-04-09T12:27:55;17.77;;;12.98;;
75820;SDS011;64454;51.984;9.838;2023-04-09T12:30:23;16.30;;;12.20;;
75820;SDS011;64454;51.984;9.838;2023-04-09T12:32:50;13.60;;;12.02;;
75820;SDS011;64454;51.984;9.838;2023-04-09T12:35:20;14.55;;;11.73;;
75820;SDS011;64454;51.984;9.838;2023-04-09T12:37:48;15.48;;;12.30;;
75820;SDS011;64454;51.984;9.838;2023-04-09T12:40:16;15.97;;;12.87;;
75820;SDS011;64454;51.984;9.838;2023-04-09T12:42:45;16.60;;;12.35;;
75820;SDS011;64454;51.984;9.838;2023-04-09T12:45:13;14.63;;;12.30;;
75820;SDS011;64454;51.984;9.838;2023-04-09T12:47:42;14.18;;;11.77;;
75820;SDS011;64454;51.984;9.838;2023-04-09T12:50:10;15.50;;;11.27;;
75820;SDS011;64454;51.984;9.838;2023-04-09T12:52:40;16.63;;;11.63;;
75820;SDS011;64454;51.984;9.838;2023-04-09T12:55:08;15.80;;;11.57;;
75820;SDS011;64454;51.984;9.838;2023-04-09T12:57:36;14.90;;;11.75;;
75820;SDS011;64454;51.984;9.838;2023-04-09T13:00:05;16.40;;;12.13;;
75820;SDS011;64454;51.984;9.838;2023-04-09T13:02:33;16.00;;;11.40;;
75820;SDS011;64454;51.984;9.838;2023-04-09T13:05:01;15.95;;;12.02;;
75820;SDS011;64454;51.984;9.838;2023-04-09T13:07:29;16.27;;;12.05;;
75820;SDS011;64454;51.984;9.838;2023-04-09T13:09:57;15.20;;;12.57;;
75820;SDS011;64454;51.984;9.838;2023-04-09T13:12:24;14.32;;;10.70;;
75820;SDS011;64454;51.984;9.838;2023-04-09T13:14:52;14.23;;;10.30;;
75820;SDS011;64454;51.984;9.838;2023-04-09T13:17:20;15.18;;;11.50;;
75820;SDS011;64454;51.984;9.838;2023-04-09T13:19:48;14.25;;;11.70;;
75820;SDS011;64454;51.984;9.838;2023-04-09T13:22:15;15.83;;;11.50;;
75820;SDS011;64454;51.984;9.838;2023-04-09T13:24:42;13.32;;;11.23;;
75820;SDS011;64454;51.984;9.838;2023-04-09T13:27:11;13.20;;;10.60;;
75820;SDS011;64454;51.984;9.838;2023-04-09T13:29:38;12.52;;;10.20;;
75820;SDS011;64454;51.984;9.838;2023-04-09T13:32:05;12.75;;;10.50;;
75820;SDS011;64454;51.984;9.838;2023-04-09T13:34:32;13.05;;;10.68;;
75820;SDS011;64454;51.984;9.838;2023-04-09T13:37:00;15.40;;;12.23;;
75820;SDS011;64454;51.984;9.838;2023-04-09T13:39:26;13.10;;;10.90;;
75820;SDS011;64454;51.984;9.838;2023-04-09T13:41:53;13.88;;;11.35;;
75820;SDS011;64454;51.984;9.838;2023-04-09T13:44:22;15.65;;;12.40;;
75820;SDS011;64454;51.984;9.838;2023-04-09T13:46:49;13.43;;;11.52;;
75820;SDS011;64454;51.984;9.838;2023-04-09T13:49:17;14.60;;;11.25;;
75820;SDS011;64454;51.984;9.838;2023-04-09T13:51:46;13.88;;;10.55;;
75820;SDS011;64454;51.984;9.838;2023-04-09T13:54:13;14.47;;;11.17;;
75820;SDS011;64454;51.984;9.838;2023-04-09T13:56:42;15.00;;;10.90;;
75820;SDS011;64454;51.984;9.838;2023-04-09T13:59:10;15.48;;;11.52;;
75820;SDS011;64454;51.984;9.838;2023-04-09T14:01:39;14.68;;;11.18;;
75820;SDS011;64454;51.984;9.838;2023-04-09T14:04:06;17.85;;;11.38;;
75820;SDS011;64454;51.984;9.838;2023-04-09T14:06:33;15.20;;;11.40;;
75820;SDS011;64454;51.984;9.838;2023-04-09T14:09:00;15.75;;;12.07;;
75820;SDS011;64454;51.984;9.838;2023-04-09T14:11:27;17.45;;;12.43;;
75820;SDS011;64454;51.984;9.838;2023-04-09T14:13:54;17.77;;;12.47;;
75820;SDS011;64454;51.984;9.838;2023-04-09T14:16:21;18.33;;;12.77;;
75820;SDS011;64454;51.984;9.838;2023-04-09T14:18:49;14.50;;;10.87;;
75820;SDS011;64454;51.984;9.838;2023-04-09T14:21:16;15.18;;;11.68;;
75820;SDS011;64454;51.984;9.838;2023-04-09T14:23:43;15.43;;;11.65;;
75820;SDS011;64454;51.984;9.838;2023-04-09T14:26:10;17.38;;;12.80;;
75820;SDS011;64454;51.984;9.838;2023-04-09T14:28:37;18.30;;;14.23;;